createdAt,value
2023-03-29T00:01:36.683Z,15.03
2023-03-29T00:04:07.042Z,15.90
2023-03-29T00:06:34.507Z,15.80
2023-03-29T00:09:05.218Z,15.43
2023-03-29T00:11:32.402Z,13.87
2023-03-29T00:13:59.566Z,12.23
2023-03-29T00:16:26.756Z,12.00
2023-03-29T00:18:53.989Z,12.60
2023-03-29T00:21:21.132Z,14.43
2023-03-29T00:23:48.327Z,15.40
2023-03-29T00:26:15.493Z,12.33
2023-03-29T00:28:42.623Z,12.93
2023-03-29T00:31:13.827Z,13.00
2023-03-29T00:33:41.416Z,15.17
2023-03-29T00:36:09.091Z,14.77
2023-03-29T00:38:36.336Z,14.03
2023-03-29T00:41:04.248Z,15.77
2023-03-29T00:43:31.600Z,15.57
2023-03-29T00:45:58.805Z,13.37
2023-03-29T00:48:27.907Z,15.97
2023-03-29T00:50:56.327Z,15.47
2023-03-29T00:53:26.584Z,16.10
2023-03-29T00:55:58.192Z,18.10
2023-03-29T00:58:26.961Z,18.50
2023-03-29T01:00:58.680Z,17.47
2023-03-29T01:03:27.463Z,17.77
2023-03-29T01:05:57.226Z,18.70
2023-03-29T01:08:27.991Z,18.70
2023-03-29T01:10:58.873Z,16.80
2023-03-29T01:13:27.787Z,19.60
2023-03-29T01:15:55.049Z,17.87
2023-03-29T01:18:23.123Z,17.50
2023-03-29T01:20:51.093Z,17.97
2023-03-29T01:23:21.315Z,16.10
2023-03-29T01:25:48.984Z,17.47
2023-03-29T01:28:17.425Z,18.17
2023-03-29T01:30:46.676Z,17.50
2023-03-29T01:33:21.149Z,16.80
2023-03-29T01:35:50.158Z,16.50
2023-03-29T01:38:22.594Z,16.50
2023-03-29T01:40:49.751Z,16.60
2023-03-29T01:43:25.281Z,18.20
2023-03-29T01:45:56.309Z,16.03
2023-03-29T01:48:28.129Z,16.97
2023-03-29T01:50:56.574Z,17.07
2023-03-29T01:53:24.686Z,18.13
2023-03-29T01:55:56.412Z,19.53
2023-03-29T01:58:24.654Z,20.80
2023-03-29T02:00:53.954Z,18.20
2023-03-29T02:03:21.888Z,17.70
2023-03-29T02:05:49.116Z,16.70
2023-03-29T02:08:16.284Z,16.60
2023-03-29T02:10:43.516Z,17.77
2023-03-29T02:13:10.633Z,20.23
2023-03-29T02:15:38.535Z,18.77
2023-03-29T02:18:06.905Z,21.33
2023-03-29T02:20:39.073Z,19.83
2023-03-29T02:23:09.502Z,20.53
2023-03-29T02:25:37.922Z,21.80
2023-03-29T02:28:05.682Z,22.33
2023-03-29T02:30:53.603Z,26.00
2023-03-29T02:33:35.255Z,24.27
2023-03-29T02:36:10.320Z,25.13
2023-03-29T02:38:38.966Z,25.47
2023-03-29T02:41:06.117Z,20.90
2023-03-29T02:43:33.393Z,16.10
2023-03-29T02:46:00.763Z,17.67
2023-03-29T02:48:28.018Z,21.87
2023-03-29T02:50:56.293Z,23.87
2023-03-29T02:53:24.244Z,21.97
2023-03-29T02:55:52.832Z,21.67
2023-03-29T02:58:20.663Z,20.63
2023-03-29T03:00:48.250Z,20.20
2023-03-29T03:03:15.680Z,17.70
2023-03-29T03:05:43.573Z,16.60
2023-03-29T03:08:10.806Z,17.03
2023-03-29T03:10:38.109Z,14.33
2023-03-29T03:13:05.310Z,16.10
2023-03-29T03:15:35.678Z,15.43
2023-03-29T03:18:06.325Z,15.47
2023-03-29T03:20:33.548Z,15.20
2023-03-29T03:23:03.267Z,15.77
2023-03-29T03:25:30.501Z,15.80
2023-03-29T03:27:57.712Z,15.83
2023-03-29T03:30:25.500Z,16.90
2023-03-29T03:32:54.933Z,17.20
2023-03-29T03:35:22.748Z,19.33
2023-03-29T03:37:50.006Z,19.33
2023-03-29T03:40:17.432Z,17.83
2023-03-29T03:42:44.624Z,18.33
2023-03-29T03:45:12.255Z,18.40
2023-03-29T03:47:39.526Z,16.67
2023-03-29T03:50:07.010Z,20.50
2023-03-29T03:52:34.177Z,20.10
2023-03-29T03:55:03.456Z,17.87
2023-03-29T03:57:33.052Z,16.37
2023-03-29T04:00:00.208Z,13.60
2023-03-29T04:02:27.594Z,12.80
2023-03-29T04:04:54.822Z,14.33
2023-03-29T04:07:21.952Z,15.13
2023-03-29T04:09:49.671Z,19.43
2023-03-29T04:12:16.827Z,20.87
2023-03-29T04:14:43.993Z,31.03
2023-03-29T04:17:11.167Z,23.87
2023-03-29T04:19:38.360Z,22.07
2023-03-29T04:22:05.929Z,35.23
2023-03-29T04:24:33.111Z,28.33
2023-03-29T04:27:00.296Z,19.47
2023-03-29T04:29:27.419Z,24.27
2023-03-29T04:31:56.459Z,20.53
2023-03-29T04:34:23.676Z,21.43
2023-03-29T04:36:50.859Z,25.80
2023-03-29T04:39:20.963Z,24.10
2023-03-29T04:41:48.516Z,25.47
2023-03-29T04:44:16.176Z,28.00
2023-03-29T04:46:43.455Z,33.20
2023-03-29T04:49:11.383Z,32.03
2023-03-29T04:51:39.117Z,34.87
2023-03-29T04:54:06.617Z,37.73
2023-03-29T04:56:33.794Z,36.10
2023-03-29T04:59:01.253Z,37.30
2023-03-29T05:01:29.034Z,38.33
2023-03-29T05:03:56.809Z,37.27
2023-03-29T05:06:24.076Z,51.13
2023-03-29T05:08:51.397Z,50.87
2023-03-29T05:11:19.721Z,48.57
2023-03-29T05:13:46.869Z,44.77
2023-03-29T05:16:14.057Z,41.67
2023-03-29T05:18:41.222Z,44.03
2023-03-29T05:21:09.471Z,43.20
2023-03-29T05:23:36.657Z,41.23
2023-03-29T05:26:04.102Z,41.60
2023-03-29T05:28:31.296Z,43.53
2023-03-29T05:31:05.803Z,42.20
2023-03-29T05:33:33.718Z,40.90
2023-03-29T05:36:07.895Z,43.90
2023-03-29T05:38:35.771Z,43.00
2023-03-29T05:41:03.076Z,42.70
2023-03-29T05:43:30.933Z,44.83
2023-03-29T05:45:58.155Z,46.37
2023-03-29T05:48:25.759Z,43.83
2023-03-29T05:50:53.769Z,38.40
2023-03-29T05:53:21.399Z,35.43
2023-03-29T05:55:48.621Z,28.00
2023-03-29T05:58:18.056Z,24.53
2023-03-29T06:00:45.243Z,25.23
2023-03-29T06:03:21.312Z,26.40
2023-03-29T06:05:49.940Z,23.97
2023-03-29T06:08:17.218Z,17.00
2023-03-29T06:10:44.641Z,19.90
2023-03-29T06:13:11.970Z,21.10
2023-03-29T06:15:39.093Z,17.23
2023-03-29T06:18:06.435Z,16.03
2023-03-29T06:20:33.625Z,13.90
2023-03-29T06:23:00.952Z,13.17
2023-03-29T06:25:28.107Z,21.40
2023-03-29T06:27:55.251Z,20.63
2023-03-29T06:30:22.461Z,21.27
2023-03-29T06:32:50.574Z,18.80
2023-03-29T06:35:18.356Z,15.70
2023-03-29T06:37:49.949Z,15.73
2023-03-29T06:40:19.243Z,16.53
2023-03-29T06:42:47.127Z,23.90
2023-03-29T06:45:14.555Z,17.00
2023-03-29T06:47:42.092Z,16.63
2023-03-29T06:50:09.469Z,14.83
2023-03-29T06:52:36.770Z,14.53
2023-03-29T06:55:07.416Z,16.00
2023-03-29T06:57:34.622Z,15.60
2023-03-29T07:00:01.862Z,15.27
2023-03-29T07:02:29.120Z,12.10
2023-03-29T07:04:56.378Z,10.33
2023-03-29T07:07:27.383Z,11.00
2023-03-29T07:09:55.449Z,14.47
2023-03-29T07:12:23.091Z,7.57
2023-03-29T07:14:50.325Z,10.70
2023-03-29T07:17:18.396Z,8.87
2023-03-29T07:19:46.868Z,9.90
2023-03-29T07:22:14.073Z,10.13
2023-03-29T07:24:41.360Z,9.10
2023-03-29T07:27:08.908Z,8.73
2023-03-29T07:29:36.137Z,9.87
2023-03-29T07:32:06.533Z,10.10
2023-03-29T07:34:33.703Z,9.77
2023-03-29T07:37:00.861Z,11.90
2023-03-29T07:39:28.308Z,8.20
2023-03-29T07:41:57.983Z,4.23
2023-03-29T07:44:27.051Z,4.23
2023-03-29T07:46:54.310Z,7.00
2023-03-29T07:49:22.302Z,4.30
2023-03-29T07:51:49.510Z,4.57
2023-03-29T07:54:16.800Z,3.60
2023-03-29T07:56:44.121Z,2.63
2023-03-29T07:59:11.623Z,2.30
2023-03-29T08:01:40.958Z,2.10
2023-03-29T08:04:08.487Z,1.87
2023-03-29T08:06:35.736Z,1.70
2023-03-29T08:09:02.936Z,2.30
2023-03-29T08:11:30.140Z,3.20
2023-03-29T08:13:59.032Z,1.80
2023-03-29T08:16:26.787Z,1.60
2023-03-29T08:18:54.011Z,2.23
2023-03-29T08:21:21.459Z,1.90
2023-03-29T08:23:48.684Z,2.10
2023-03-29T08:26:16.082Z,1.93
2023-03-29T08:28:43.263Z,2.03
2023-03-29T08:31:10.597Z,2.13
2023-03-29T08:33:37.870Z,2.30
2023-03-29T08:36:05.299Z,1.50
2023-03-29T08:38:32.507Z,2.20
2023-03-29T08:40:59.895Z,1.65
2023-03-29T08:43:45.949Z,1.90
2023-03-29T08:46:39.672Z,2.17
2023-03-29T08:49:07.016Z,2.00
2023-03-29T08:51:38.102Z,2.58
2023-03-29T08:54:08.371Z,2.40
2023-03-29T08:56:36.105Z,1.80
2023-03-29T08:59:03.442Z,2.10
2023-03-29T09:01:32.245Z,2.10
2023-03-29T09:04:09.766Z,2.10
2023-03-29T09:06:37.288Z,2.30
2023-03-29T09:09:04.539Z,2.00
2023-03-29T09:11:41.501Z,2.80
2023-03-29T09:14:14.721Z,2.10
2023-03-29T09:16:41.896Z,3.20
2023-03-29T09:19:27.710Z,2.47
2023-03-29T09:22:10.263Z,2.60
2023-03-29T09:24:55.460Z,2.20
2023-03-29T09:27:25.262Z,1.98
2023-03-29T09:29:55.599Z,2.33
2023-03-29T09:32:23.469Z,1.95
2023-03-29T09:34:54.906Z,2.47
2023-03-29T09:37:27.143Z,2.25
2023-03-29T09:39:55.809Z,1.90
2023-03-29T09:42:22.970Z,4.00
2023-03-29T09:44:53.699Z,2.67
2023-03-29T09:47:29.555Z,10.80
2023-03-29T09:50:00.672Z,2.78
2023-03-29T09:52:27.826Z,2.90
2023-03-29T09:54:55.010Z,2.40
2023-03-29T09:57:22.309Z,2.47
2023-03-29T09:59:50.445Z,2.60
2023-03-29T10:02:18.717Z,2.35
2023-03-29T10:04:45.868Z,2.47
2023-03-29T10:07:20.805Z,3.00
2023-03-29T10:09:48.012Z,3.33
2023-03-29T10:12:15.265Z,2.70
2023-03-29T10:14:43.627Z,2.97
2023-03-29T10:17:21.790Z,2.50
2023-03-29T10:19:52.528Z,2.38
2023-03-29T10:22:20.965Z,2.30
2023-03-29T10:24:48.779Z,2.33
2023-03-29T10:27:15.944Z,1.90
2023-03-29T10:29:43.464Z,2.40
2023-03-29T10:32:16.856Z,2.63
2023-03-29T10:34:44.381Z,1.90
2023-03-29T10:37:12.574Z,2.20
2023-03-29T10:39:39.916Z,1.73
2023-03-29T10:42:08.434Z,2.20
2023-03-29T10:44:36.576Z,2.53
2023-03-29T10:47:30.367Z,2.10
2023-03-29T10:50:01.508Z,2.67
2023-03-29T10:52:29.805Z,2.38
2023-03-29T10:54:57.001Z,2.03
2023-03-29T10:57:36.491Z,1.75
2023-03-29T11:00:16.784Z,1.98
2023-03-29T11:02:43.975Z,1.88
2023-03-29T11:05:22.599Z,2.75
2023-03-29T11:07:49.761Z,2.72
2023-03-29T11:10:24.745Z,1.30
2023-03-29T11:12:56.097Z,1.27
2023-03-29T11:15:23.272Z,1.27
2023-03-29T11:18:01.341Z,1.23
2023-03-29T11:20:40.991Z,1.70
2023-03-29T11:23:11.434Z,1.30
2023-03-29T11:25:38.578Z,1.70
2023-03-29T11:28:11.608Z,1.77
2023-03-29T11:30:49.226Z,2.15
2023-03-29T11:33:19.559Z,1.67
2023-03-29T11:35:47.277Z,1.55
2023-03-29T11:38:29.830Z,1.50
2023-03-29T11:41:02.856Z,1.50
2023-03-29T11:43:37.953Z,1.80
2023-03-29T11:46:11.254Z,2.05
2023-03-29T11:48:42.890Z,2.05
2023-03-29T11:51:11.711Z,1.60
2023-03-29T11:54:02.074Z,2.00
2023-03-29T11:56:32.021Z,1.95
2023-03-29T11:59:01.380Z,2.13
2023-03-29T12:01:34.616Z,1.70
2023-03-29T12:04:03.809Z,1.55
2023-03-29T12:06:37.355Z,1.90
2023-03-29T12:09:07.090Z,2.40
2023-03-29T12:11:38.747Z,1.35
2023-03-29T12:14:06.834Z,2.10
2023-03-29T12:16:35.977Z,1.80
2023-03-29T12:19:23.361Z,1.90
2023-03-29T12:21:50.844Z,4.05
2023-03-29T12:24:21.720Z,17.40
2023-03-29T12:26:55.158Z,2.47
2023-03-29T12:29:22.289Z,2.97
2023-03-29T12:31:49.506Z,2.50
2023-03-29T12:34:20.080Z,1.88
2023-03-29T12:37:03.475Z,1.95
2023-03-29T12:39:31.125Z,1.40
2023-03-29T12:42:14.610Z,1.85
2023-03-29T12:44:42.629Z,2.17
2023-03-29T12:47:10.616Z,1.70
2023-03-29T12:49:38.701Z,2.20
2023-03-29T12:52:24.731Z,2.05
2023-03-29T12:54:55.875Z,2.03
2023-03-29T12:57:27.549Z,2.08
2023-03-29T12:59:54.966Z,2.70
2023-03-29T13:02:22.175Z,2.63
2023-03-29T13:04:50.870Z,4.50
2023-03-29T13:07:23.872Z,3.42
2023-03-29T13:09:51.957Z,2.83
2023-03-29T13:12:19.273Z,4.18
2023-03-29T13:14:47.456Z,1.98
2023-03-29T13:17:21.250Z,2.20
2023-03-29T13:19:50.818Z,4.75
2023-03-29T13:22:18.188Z,3.10
2023-03-29T13:24:45.454Z,2.50
2023-03-29T13:27:25.245Z,3.72
2023-03-29T13:29:55.546Z,4.35
2023-03-29T13:32:27.157Z,2.75
2023-03-29T13:34:54.452Z,3.03
2023-03-29T13:37:40.050Z,4.20
2023-03-29T13:40:26.607Z,4.53
2023-03-29T13:43:00.544Z,6.95
2023-03-29T13:45:28.814Z,2.67
2023-03-29T13:48:22.732Z,3.38
2023-03-29T13:50:53.940Z,3.38
2023-03-29T13:53:23.878Z,2.92
2023-03-29T13:55:51.728Z,2.95
2023-03-29T13:58:31.286Z,2.65
2023-03-29T14:01:10.751Z,2.55
2023-03-29T14:03:41.436Z,3.15
2023-03-29T14:06:09.823Z,3.35
2023-03-29T14:08:41.020Z,3.60
2023-03-29T14:11:09.356Z,4.28
2023-03-29T14:13:36.479Z,9.55
2023-03-29T14:16:05.118Z,2.97
2023-03-29T14:18:37.295Z,4.28
2023-03-29T14:21:04.607Z,5.97
2023-03-29T14:23:32.792Z,5.60
2023-03-29T14:26:10.619Z,8.50
2023-03-29T14:28:37.745Z,3.83
2023-03-29T14:31:04.960Z,8.07
2023-03-29T14:33:34.637Z,3.40
2023-03-29T14:36:03.657Z,2.67
2023-03-29T14:38:31.432Z,5.90
2023-03-29T14:41:01.994Z,5.15
2023-03-29T14:43:30.974Z,14.02
2023-03-29T14:45:58.543Z,8.25
2023-03-29T14:48:25.893Z,3.85
2023-03-29T14:50:53.019Z,18.10
2023-03-29T14:53:21.113Z,7.80
2023-03-29T14:55:52.363Z,9.55
2023-03-29T14:58:29.608Z,6.57
2023-03-29T15:00:57.033Z,11.13
2023-03-29T15:03:27.107Z,8.40
2023-03-29T15:05:55.645Z,4.90
2023-03-29T15:08:33.086Z,5.55
2023-03-29T15:11:00.326Z,7.57
2023-03-29T15:13:28.324Z,5.38
2023-03-29T15:15:57.592Z,3.80
2023-03-29T15:18:27.630Z,3.20
2023-03-29T15:20:54.872Z,6.05
2023-03-29T15:23:23.427Z,5.95
2023-03-29T15:25:58.105Z,7.53
2023-03-29T15:28:27.708Z,3.75
2023-03-29T15:31:07.310Z,3.33
2023-03-29T15:33:36.678Z,2.78
2023-03-29T15:36:04.533Z,4.70
2023-03-29T15:38:40.880Z,3.80
2023-03-29T15:41:10.916Z,4.05
2023-03-29T15:43:38.128Z,16.98
2023-03-29T15:46:05.472Z,49.88
2023-03-29T15:48:33.817Z,29.30
2023-03-29T15:51:05.479Z,7.72
2023-03-29T15:53:33.800Z,7.60
2023-03-29T15:56:01.913Z,6.55
2023-03-29T15:58:32.669Z,6.95
2023-03-29T16:01:11.494Z,4.68
2023-03-29T16:03:39.263Z,3.75
2023-03-29T16:06:06.678Z,12.45
2023-03-29T16:08:33.877Z,5.53
2023-03-29T16:11:01.094Z,17.17
2023-03-29T16:13:28.236Z,9.30
2023-03-29T16:15:55.443Z,7.20
2023-03-29T16:18:22.548Z,5.13
2023-03-29T16:20:49.682Z,28.25
2023-03-29T16:23:16.852Z,28.60
2023-03-29T16:25:43.969Z,13.35
2023-03-29T16:28:11.325Z,13.25
2023-03-29T16:30:38.736Z,13.80
2023-03-29T16:33:09.167Z,15.48
2023-03-29T16:35:37.851Z,16.33
2023-03-29T16:38:05.308Z,22.30
2023-03-29T16:40:33.252Z,25.77
2023-03-29T16:43:00.542Z,28.73
2023-03-29T16:45:28.040Z,35.70
2023-03-29T16:47:56.083Z,31.17
2023-03-29T16:50:23.498Z,38.55
2023-03-29T16:52:53.632Z,31.53
2023-03-29T16:55:20.805Z,29.55
2023-03-29T16:57:48.534Z,28.23
2023-03-29T17:00:17.026Z,31.90
2023-03-29T17:02:44.510Z,32.22
2023-03-29T17:05:12.334Z,38.57
2023-03-29T17:07:39.794Z,37.03
2023-03-29T17:10:08.187Z,31.10
2023-03-29T17:12:35.473Z,29.83
2023-03-29T17:15:03.022Z,30.23
2023-03-29T17:17:30.210Z,26.67
2023-03-29T17:19:57.368Z,28.57
2023-03-29T17:22:24.859Z,29.53
2023-03-29T17:24:52.066Z,32.17
2023-03-29T17:27:19.250Z,30.03
2023-03-29T17:29:46.438Z,29.70
2023-03-29T17:32:13.576Z,26.87
2023-03-29T17:34:40.837Z,29.87
2023-03-29T17:37:07.997Z,40.77
2023-03-29T17:39:37.532Z,39.20
2023-03-29T17:42:05.338Z,37.73
2023-03-29T17:44:33.345Z,46.07
2023-03-29T17:47:01.191Z,53.97
2023-03-29T17:49:28.519Z,42.13
2023-03-29T17:51:55.788Z,50.97
2023-03-29T17:54:22.960Z,46.80
2023-03-29T17:56:50.559Z,45.00
2023-03-29T17:59:17.911Z,48.67
2023-03-29T18:01:45.808Z,46.57
2023-03-29T18:04:12.987Z,44.57
2023-03-29T18:06:40.203Z,43.63
2023-03-29T18:09:07.629Z,44.73
2023-03-29T18:11:36.345Z,47.37
2023-03-29T18:14:04.866Z,50.90
2023-03-29T18:16:32.018Z,54.93
2023-03-29T18:18:59.388Z,54.47
2023-03-29T18:21:27.500Z,51.37
2023-03-29T18:23:56.911Z,49.70
2023-03-29T18:26:25.080Z,48.47
2023-03-29T18:28:52.545Z,44.70
2023-03-29T18:31:19.950Z,40.70
2023-03-29T18:33:47.603Z,40.40
2023-03-29T18:36:14.922Z,42.73
2023-03-29T18:38:43.152Z,46.70
2023-03-29T18:41:12.145Z,59.13
2023-03-29T18:43:39.884Z,58.07
2023-03-29T18:46:07.850Z,57.90
2023-03-29T18:48:39.128Z,75.53
2023-03-29T18:51:09.762Z,70.97
2023-03-29T18:53:36.938Z,65.60
2023-03-29T18:56:06.514Z,63.20
2023-03-29T18:58:33.849Z,43.90
2023-03-29T19:01:05.205Z,44.37
2023-03-29T19:03:36.319Z,43.03
2023-03-29T19:06:03.912Z,43.00
2023-03-29T19:08:32.836Z,44.40
2023-03-29T19:11:03.398Z,44.33
2023-03-29T19:13:30.545Z,43.50
2023-03-29T19:15:57.778Z,46.20
2023-03-29T19:18:24.959Z,50.40
2023-03-29T19:20:54.068Z,61.17
2023-03-29T19:23:21.898Z,62.57
2023-03-29T19:25:56.161Z,51.97
2023-03-29T19:28:23.410Z,45.73
2023-03-29T19:30:50.581Z,49.43
2023-03-29T19:33:18.462Z,51.20
2023-03-29T19:35:45.763Z,46.37
2023-03-29T19:38:13.056Z,46.37
2023-03-29T19:40:40.483Z,37.90
2023-03-29T19:43:07.642Z,35.70
2023-03-29T19:45:34.752Z,37.00
2023-03-29T19:48:03.282Z,38.23
2023-03-29T19:50:31.958Z,38.33
2023-03-29T19:52:59.148Z,38.53
2023-03-29T19:55:27.294Z,40.77
2023-03-29T19:57:54.559Z,49.13
2023-03-29T20:00:25.054Z,42.13
2023-03-29T20:02:52.858Z,40.73
2023-03-29T20:05:20.275Z,43.83
2023-03-29T20:07:47.428Z,47.40
2023-03-29T20:10:14.608Z,44.03
2023-03-29T20:12:41.849Z,40.03
2023-03-29T20:15:09.389Z,36.03
2023-03-29T20:17:40.821Z,36.57
2023-03-29T20:20:10.076Z,37.60
2023-03-29T20:22:38.112Z,43.47
2023-03-29T20:25:05.791Z,47.40
2023-03-29T20:27:34.125Z,38.07
2023-03-29T20:30:01.318Z,39.50
2023-03-29T20:32:28.577Z,39.30
2023-03-29T20:34:55.869Z,44.47
2023-03-29T20:37:23.044Z,62.53
2023-03-29T20:39:50.538Z,59.40
2023-03-29T20:42:17.672Z,68.80
2023-03-29T20:44:50.470Z,93.57
2023-03-29T20:47:19.296Z,94.50
2023-03-29T20:49:46.551Z,80.50
2023-03-29T20:52:17.199Z,72.47
2023-03-29T20:54:44.897Z,57.87
2023-03-29T20:57:14.114Z,52.30
2023-03-29T20:59:41.621Z,47.50
2023-03-29T21:02:09.614Z,46.63
2023-03-29T21:04:36.855Z,44.67
2023-03-29T21:07:06.324Z,41.47
2023-03-29T21:09:34.321Z,35.23
2023-03-29T21:12:01.947Z,33.43
2023-03-29T21:14:30.240Z,33.87
2023-03-29T21:16:57.847Z,35.60
2023-03-29T21:19:24.974Z,27.07
2023-03-29T21:21:52.173Z,37.20
2023-03-29T21:24:19.600Z,40.33
2023-03-29T21:26:46.748Z,53.97
2023-03-29T21:29:14.152Z,37.27
2023-03-29T21:31:41.602Z,46.43
2023-03-29T21:34:09.008Z,42.17
2023-03-29T21:36:36.231Z,39.53
2023-03-29T21:39:03.632Z,35.67
2023-03-29T21:41:30.943Z,36.37
2023-03-29T21:43:58.084Z,36.23
2023-03-29T21:46:26.670Z,35.90
2023-03-29T21:48:53.854Z,30.87
2023-03-29T21:51:21.069Z,30.53
2023-03-29T21:53:48.255Z,26.77
2023-03-29T21:56:15.754Z,25.90
2023-03-29T21:58:43.098Z,46.47
2023-03-29T22:01:10.691Z,49.50
2023-03-29T22:03:38.543Z,45.37
2023-03-29T22:06:08.570Z,42.37
2023-03-29T22:08:38.828Z,44.00
2023-03-29T22:11:08.187Z,41.43
2023-03-29T22:13:35.659Z,38.10
2023-03-29T22:16:03.990Z,37.53
2023-03-29T22:18:42.281Z,35.67
2023-03-29T22:21:15.868Z,46.93
2023-03-29T22:23:43.153Z,54.13
2023-03-29T22:26:11.208Z,49.60
2023-03-29T22:28:38.477Z,36.97
2023-03-29T22:31:06.482Z,33.40
2023-03-29T22:33:34.058Z,35.43
2023-03-29T22:36:01.531Z,39.63
2023-03-29T22:38:29.032Z,40.40
2023-03-29T22:40:56.302Z,43.23
2023-03-29T22:43:23.515Z,45.07
2023-03-29T22:45:50.752Z,49.73
2023-03-29T22:48:18.028Z,50.87
2023-03-29T22:50:48.186Z,51.47
2023-03-29T22:53:15.609Z,51.33
2023-03-29T22:55:42.728Z,49.13
2023-03-29T22:58:09.921Z,47.33
2023-03-29T23:00:37.062Z,47.07
2023-03-29T23:03:04.326Z,49.97
2023-03-29T23:05:31.518Z,46.70
2023-03-29T23:07:58.652Z,44.67
2023-03-29T23:10:28.983Z,47.73
2023-03-29T23:13:13.617Z,46.20
2023-03-29T23:15:45.633Z,47.17
2023-03-29T23:18:13.154Z,47.93
2023-03-29T23:20:40.818Z,47.67
2023-03-29T23:23:08.441Z,48.40
2023-03-29T23:25:35.629Z,48.20
2023-03-29T23:28:02.756Z,49.47
2023-03-29T23:30:29.912Z,48.37
2023-03-29T23:32:58.261Z,49.60
2023-03-29T23:35:25.523Z,49.03
2023-03-29T23:37:53.033Z,50.43
2023-03-29T23:40:20.258Z,48.07
2023-03-29T23:42:48.354Z,49.10
2023-03-29T23:45:16.338Z,48.97
2023-03-29T23:47:44.158Z,48.67
2023-03-29T23:50:13.239Z,49.77
2023-03-29T23:52:40.925Z,52.47
2023-03-29T23:55:08.809Z,51.37
2023-03-29T23:57:37.052Z,50.93
